Time;durP1;ratioP1;P1;durP2;ratioP2;P2;SDS_P1;SDS_P2;PMS_P1;PMS_P2;Temp;Humidity;BMP_temperature;BMP_pressure;BME280_temperature;BME280_humidity;BME280_pressure;Samples;Min_cycle;Max_cycle;Signal;HPM_P1;HPM_P2
2022/10/14 00:00:18;;;;;;;18.02;5.32;;;;;;;14.48;54.83;95585.81;5086081;28;20084;-79
2022/10/14 00:02:44;;;;;;;13.50;5.63;;;;;;;14.43;54.37;95572.50;5070616;28;20088;-79
2022/10/14 00:05:09;;;;;;;13.43;5.60;;;;;;;14.22;54.41;95531.16;5088374;28;20524;-79
2022/10/14 00:07:36;;;;;;;9.88;4.82;;;;;;;14.29;54.39;95550.25;5074191;28;20032;-80
2022/10/14 00:10:03;;;;;;;8.85;4.88;;;;;;;14.20;54.17;95527.97;5092675;28;20039;-79
2022/10/14 00:12:28;;;;;;;9.93;4.85;;;;;;;14.05;54.16;95514.84;5092914;28;20112;-79
2022/10/14 00:14:55;;;;;;;11.48;4.20;;;;;;;14.19;53.84;95531.72;5073073;28;20110;-79
2022/10/14 00:17:21;;;;;;;11.30;4.28;;;;;;;14.24;54.08;95553.81;5073961;28;20028;-80
2022/10/14 00:19:46;;;;;;;10.13;4.60;;;;;;;14.20;55.22;95559.97;5091766;28;20398;-79
2022/10/14 00:22:12;;;;;;;7.28;3.85;;;;;;;13.83;55.07;95510.84;5073871;28;20119;-79
2022/10/14 00:24:38;;;;;;;8.40;3.88;;;;;;;14.32;55.03;95568.38;5092612;28;20040;-80
2022/10/14 00:27:03;;;;;;;12.02;4.07;;;;;;;13.90;54.65;95502.50;5073828;28;20043;-80
2022/10/14 00:29:29;;;;;;;14.30;4.68;;;;;;;14.03;54.93;95512.47;5092218;28;20044;-80
2022/10/14 00:31:54;;;;;;;15.05;4.22;;;;;;;14.20;55.04;95544.75;5092390;28;20039;-79
2022/10/14 00:34:20;;;;;;;13.57;3.78;;;;;;;13.93;55.60;95507.25;5074048;28;20051;-79
2022/10/14 00:36:45;;;;;;;8.15;3.88;;;;;;;13.81;55.39;95499.66;5073316;28;20418;-80
2022/10/14 00:39:11;;;;;;;11.40;4.25;;;;;;;14.01;55.64;95521.84;5072979;28;20040;-79
2022/10/14 00:41:37;;;;;;;15.27;4.03;;;;;;;14.28;56.22;95568.13;5072748;28;20044;-79
2022/10/14 00:44:14;;;;;;;11.93;4.20;;;;;;;14.33;55.47;95566.50;5091623;28;20047;-79
2022/10/14 00:46:42;;;;;;;17.90;4.95;;;;;;;14.14;55.91;95547.78;5073866;28;20047;-79
2022/10/14 00:49:11;;;;;;;10.10;4.10;;;;;;;14.28;56.34;95559.34;5091648;28;20039;-79
2022/10/14 00:51:38;;;;;;;11.02;4.10;;;;;;;14.23;55.57;95546.88;5091494;28;20119;-79
2022/10/14 00:54:04;;;;;;;11.52;4.07;;;;;;;14.13;56.02;95532.88;5091828;28;20036;-79
2022/10/14 00:56:31;;;;;;;7.70;4.15;;;;;;;13.84;56.45;95492.97;5092106;28;20036;-79
2022/10/14 00:58:58;;;;;;;7.60;3.22;;;;;;;14.20;56.86;95538.63;5073948;28;20051;-79
2022/10/14 01:01:23;;;;;;;9.98;3.75;;;;;;;14.04;56.46;95503.38;5072210;28;20032;-79
2022/10/14 01:03:49;;;;;;;9.73;3.13;;;;;;;14.19;57.52;95550.38;5073402;28;20044;-79
2022/10/14 01:06:41;;;;;;;16.42;3.15;;;;;;;14.23;57.18;95538.88;5091823;28;20024;-80
2022/10/14 01:09:32;;;;;;;6.80;3.00;;;;;;;14.23;57.58;95538.88;5073081;28;20043;-79
2022/10/14 01:12:16;;;;;;;7.03;3.05;;;;;;;14.19;58.23;95539.72;5072918;28;20043;-79
2022/10/14 01:15:12;;;;;;;10.85;3.00;;;;;;;14.21;57.70;95535.69;5090806;28;20036;-79
2022/10/14 01:17:38;;;;;;;16.05;3.25;;;;;;;14.21;58.22;95537.56;5092745;28;20044;-76
2022/10/14 01:20:34;;;;;;;6.70;3.25;;;;;;;14.22;58.20;95531.94;5092809;28;20055;-76
2022/10/14 01:23:29;;;;;;;9.95;3.50;;;;;;;13.99;59.01;95521.31;5074600;28;20121;-76
2022/10/14 01:25:55;;;;;;;12.80;4.00;;;;;;;14.07;58.85;95518.00;5069615;28;20047;-76
2022/10/14 01:28:52;;;;;;;8.88;3.80;;;;;;;14.16;58.85;95518.97;5093022;28;20036;-76
2022/10/14 01:31:25;;;;;;;10.48;3.40;;;;;;;13.88;58.64;95484.09;5068847;28;20044;-76
2022/10/14 01:33:56;;;;;;;8.32;3.58;;;;;;;14.12;58.79;95517.94;5092831;28;20062;-76
2022/10/14 01:36:35;;;;;;;;;;;;;;;14.10;59.15;95512.91;5092282;28;20126;-76
2022/10/14 01:39:17;;;;;;;9.05;3.28;;;;;;;14.01;59.08;95516.50;5074323;28;19927;-76
2022/10/14 01:41:46;;;;;;;4.88;2.20;;;;;;;13.57;59.55;95450.16;5092064;28;20047;-76
2022/10/14 01:44:16;;;;;;;6.75;2.78;;;;;;;13.80;59.17;95474.09;5074306;28;20028;-75
2022/10/14 01:46:46;;;;;;;4.20;2.53;;;;;;;13.86;59.06;95470.28;5092176;28;20759;-76
2022/10/14 01:49:18;;;;;;;11.85;2.80;;;;;;;14.16;59.27;95516.28;5073417;28;20036;-76
2022/10/14 01:51:49;;;;;;;5.47;2.40;;;;;;;14.10;58.99;95510.25;5073645;28;20047;-76
2022/10/14 01:54:29;;;;;;;8.68;2.38;;;;;;;14.17;58.91;95509.88;5092150;28;20065;-76
2022/10/14 01:56:58;;;;;;;6.15;2.30;;;;;;;14.21;58.76;95516.22;5073673;28;20048;-76
2022/10/14 01:59:25;;;;;;;10.15;2.50;;;;;;;14.22;58.95;95507.13;5073389;28;20044;-76
2022/10/14 02:01:51;;;;;;;5.85;2.22;;;;;;;14.11;59.84;95519.81;5091407;28;20463;-75
2022/10/14 02:04:21;;;;;;;5.28;1.95;;;;;;;13.86;59.84;95462.28;5087983;28;20040;-76
2022/10/14 02:07:11;;;;;;;7.43;1.80;;;;;;;14.12;60.00;95517.94;5092234;28;20040;-75
2022/10/14 02:10:17;;;;;;;2.28;1.65;;;;;;;14.10;60.25;95520.13;5092326;28;20449;-76
2022/10/14 02:12:52;;;;;;;11.43;2.35;;;;;;;13.99;60.33;95492.78;5073588;28;20051;-76
2022/10/14 02:15:49;;;;;;;5.75;1.98;;;;;;;14.09;60.31;95516.66;5091983;28;20040;-76
2022/10/14 02:18:20;;;;;;;5.55;1.75;;;;;;;13.46;60.29;95409.50;5073680;28;20044;-76
2022/10/14 02:20:48;;;;;;;;;;;;;;;14.07;60.62;95513.47;5091003;28;20063;-76
2022/10/14 02:23:25;;;;;;;5.38;2.00;;;;;;;13.83;60.85;95478.84;5091302;28;19926;-76
2022/10/14 02:25:53;;;;;;;5.10;1.80;;;;;;;13.93;60.70;95488.59;5052728;28;20037;-76
2022/10/14 02:28:22;;;;;;;5.30;1.67;;;;;;;13.67;60.73;95447.34;5080030;28;20051;-75
2022/10/14 02:30:59;;;;;;;3.72;1.80;;;;;;;13.88;60.52;95459.34;5087123;28;20040;-76
2022/10/14 02:33:32;;;;;;;3.40;1.70;;;;;;;13.53;60.51;95410.75;5089548;28;20049;-75
2022/10/14 02:36:00;;;;;;;3.92;1.55;;;;;;;13.91;60.37;95461.41;5072345;28;20521;-76
2022/10/14 02:38:26;;;;;;;6.72;2.00;;;;;;;14.11;60.34;95490.47;5087352;28;20518;-76
2022/10/14 02:40:52;;;;;;;4.13;1.80;;;;;;;13.34;61.44;95414.47;5071405;28;20044;-75
2022/10/14 02:43:18;;;;;;;8.20;2.10;;;;;;;13.64;61.97;95471.91;5070755;28;20037;-76
2022/10/14 02:45:43;;;;;;;5.80;3.05;;;;;;;13.74;61.85;95487.75;5086777;28;20135;-76
2022/10/14 02:48:10;;;;;;;7.40;3.67;;;;;;;13.23;62.15;95421.75;5071653;28;20083;-76
2022/10/14 02:50:35;;;;;;;10.48;3.88;;;;;;;13.09;62.20;95416.28;5071418;28;20036;-76
2022/10/14 02:53:01;;;;;;;9.98;3.80;;;;;;;13.67;62.06;95503.31;5087832;28;20508;-75
2022/10/14 02:55:26;;;;;;;8.25;3.67;;;;;;;13.13;62.16;95406.69;5080792;28;20032;-76
2022/10/14 02:57:52;;;;;;;10.00;3.20;;;;;;;13.19;61.85;95414.63;5070605;28;20044;-75
2022/10/14 03:00:18;;;;;;;6.82;2.40;;;;;;;13.74;61.76;95488.56;5071503;28;20509;-75
2022/10/14 03:02:43;;;;;;;4.30;2.17;;;;;;;13.34;61.22;95415.25;5071445;28;20501;-76
2022/10/14 03:05:09;;;;;;;5.28;2.63;;;;;;;13.53;61.45;95452.56;5070467;28;20059;-76
2022/10/14 03:07:35;;;;;;;5.07;2.10;;;;;;;13.38;61.61;95429.56;5052744;28;20550;-75
2022/10/14 03:10:01;;;;;;;4.25;2.42;;;;;;;13.44;61.29;95425.75;5087867;28;20058;-76
2022/10/14 03:12:27;;;;;;;5.88;2.35;;;;;;;13.81;61.39;95488.19;5089937;28;20044;-76
2022/10/14 03:14:53;;;;;;;4.40;1.95;;;;;;;13.86;61.43;95482.81;5090953;28;20054;-76
2022/10/14 03:17:19;;;;;;;4.45;2.10;;;;;;;13.79;61.24;95477.84;5089293;28;20044;-75
2022/10/14 03:19:44;;;;;;;5.63;2.40;;;;;;;13.21;61.41;95380.50;5090847;28;20044;-76
2022/10/14 03:22:10;;;;;;;7.97;2.20;;;;;;;13.84;61.11;95471.66;5091203;28;20097;-76
2022/10/14 03:24:35;;;;;;;3.85;1.70;;;;;;;13.45;61.62;95426.56;5069512;28;20055;-76
2022/10/14 03:27:01;;;;;;;6.07;2.10;;;;;;;13.40;61.42;95424.75;5052805;28;20033;-75
2022/10/14 03:29:26;;;;;;;7.03;1.70;;;;;;;13.75;61.34;95474.16;5086047;28;20542;-76
2022/10/14 03:31:52;;;;;;;4.90;1.98;;;;;;;13.55;61.65;95469.06;5070740;28;20075;-76
2022/10/14 03:34:17;;;;;;;7.93;2.08;;;;;;;13.64;61.87;95478.03;5070903;28;20047;-75
2022/10/14 03:36:43;;;;;;;3.22;1.80;;;;;;;13.64;61.85;95475.38;5052073;28;20048;-76
2022/10/14 03:39:09;;;;;;;4.57;2.10;;;;;;;13.24;61.72;95415.34;5070615;28;20052;-76
2022/10/14 03:41:35;;;;;;;3.97;2.10;;;;;;;12.85;62.06;95378.22;5074250;28;20070;-75
2022/10/14 03:44:01;;;;;;;3.17;1.58;;;;;;;13.25;62.39;95450.78;5087942;28;20055;-75
2022/10/14 03:46:26;;;;;;;5.57;2.10;;;;;;;13.01;62.16;95400.94;5094415;28;20129;-76
2022/10/14 03:48:52;;;;;;;4.40;1.77;;;;;;;13.34;61.83;95436.56;5076567;28;20138;-76
2022/10/14 03:51:17;;;;;;;6.63;2.13;;;;;;;13.22;61.97;95414.03;5095073;28;20093;-75
2022/10/14 03:53:43;;;;;;;5.97;2.60;;;;;;;13.12;62.17;95428.25;5092964;28;20097;-75
2022/10/14 03:56:08;;;;;;;4.22;1.67;;;;;;;13.50;62.18;95477.13;5094126;28;20625;-76
2022/10/14 03:58:34;;;;;;;6.40;1.65;;;;;;;13.34;62.10;95451.75;5094411;28;20071;-75
2022/10/14 04:00:59;;;;;;;11.30;2.00;;;;;;;13.30;62.10;95435.53;5083798;28;20052;-75
2022/10/14 04:03:24;;;;;;;7.50;2.40;;;;;;;13.09;61.95;95388.88;5086314;28;20465;-75
2022/10/14 04:05:50;;;;;;;5.50;2.40;;;;;;;13.26;61.93;95426.53;5073411;28;20052;-75
2022/10/14 04:08:15;;;;;;;4.47;1.77;;;;;;;13.19;61.87;95410.09;5055405;28;20041;-75
2022/10/14 04:10:41;;;;;;;7.68;1.85;;;;;;;13.48;62.53;95471.28;5075511;28;20051;-76
2022/10/14 04:13:06;;;;;;;5.15;1.80;;;;;;;13.29;62.26;95417.97;5060478;28;20140;-76
2022/10/14 04:15:34;;;;;;;5.63;1.80;;;;;;;13.18;62.32;95419.16;5051103;28;20041;-75
2022/10/14 04:17:59;;;;;;;6.57;1.98;;;;;;;13.19;62.05;95419.97;5050196;28;20216;-75
2022/10/14 04:20:24;;;;;;;2.65;1.90;;;;;;;13.56;61.97;95453.88;5049406;28;20079;-75
2022/10/14 04:22:50;;;;;;;5.05;2.10;;;;;;;13.44;61.69;95435.63;5048182;28;20040;-76
2022/10/14 04:25:18;;;;;;;4.03;1.83;;;;;;;13.41;62.24;95434.34;5046012;28;20052;-76
2022/10/14 04:27:43;;;;;;;3.83;1.65;;;;;;;13.41;61.78;95431.69;5040729;28;20040;-75
2022/10/14 04:30:10;;;;;;;7.63;1.73;;;;;;;13.55;61.95;95447.75;5045013;28;20043;-76
2022/10/14 04:32:35;;;;;;;6.45;1.92;;;;;;;13.42;62.15;95449.25;5035099;28;20075;-76
2022/10/14 04:35:01;;;;;;;5.13;1.92;;;;;;;13.11;62.52;95403.50;5039418;28;20052;-77
2022/10/14 04:37:27;;;;;;;8.98;2.33;;;;;;;13.17;62.41;95409.59;5047517;28;20052;-75
2022/10/14 04:39:53;;;;;;;3.95;2.42;;;;;;;13.41;62.13;95446.88;5037490;28;20127;-76
2022/10/14 04:42:19;;;;;;;3.80;2.42;;;;;;;13.45;62.21;95438.00;5044166;28;20119;-77
2022/10/14 04:44:44;;;;;;;5.18;2.88;;;;;;;13.32;61.87;95421.94;5045171;28;20134;-76
2022/10/14 04:47:10;;;;;;;6.78;2.72;;;;;;;12.97;61.99;95364.53;5039360;28;20051;-76
2022/10/14 04:49:35;;;;;;;7.32;3.50;;;;;;;13.46;61.67;95428.16;5044026;28;20121;-76
2022/10/14 04:52:00;;;;;;;4.53;2.75;;;;;;;13.55;61.70;95445.09;5061285;28;20044;-77
2022/10/14 04:54:26;;;;;;;9.10;3.10;;;;;;;13.53;61.55;95439.25;5051692;28;20040;-76
2022/10/14 04:56:52;;;;;;;7.78;3.15;;;;;;;13.29;61.67;95404.63;5035135;28;20486;-75
2022/10/14 04:59:17;;;;;;;7.07;2.58;;;;;;;13.45;61.91;95440.69;5041173;28;20102;-78
2022/10/14 05:01:45;;;;;;;9.00;2.63;;;;;;;13.19;61.62;95402.09;5058049;28;20047;-76
2022/10/14 05:04:13;;;;;;;8.80;3.33;;;;;;;13.13;61.56;95393.38;5054789;28;20111;-78
2022/10/14 05:06:38;;;;;;;11.00;2.75;;;;;;;12.94;61.67;95352.56;5035338;28;20036;-78
2022/10/14 05:09:05;;;;;;;9.75;2.70;;;;;;;13.10;61.77;95382.47;5040166;28;20033;-79
2022/10/14 05:11:30;;;;;;;9.00;2.35;;;;;;;13.30;61.56;95416.88;5055684;28;20067;-81
2022/10/14 05:13:56;;;;;;;14.02;2.25;;;;;;;13.47;61.11;95438.53;5030966;28;20179;-79
2022/10/14 05:16:21;;;;;;;7.03;2.45;;;;;;;12.89;60.70;95328.66;5028991;28;20246;-78
2022/10/14 05:18:47;;;;;;;6.07;2.33;;;;;;;13.16;60.83;95370.72;5037791;28;20297;-77
2022/10/14 05:21:12;;;;;;;10.55;2.70;;;;;;;12.70;60.79;95307.31;5068361;28;20135;-80
2022/10/14 05:23:38;;;;;;;7.43;2.28;;;;;;;13.07;60.59;95365.19;5054215;28;20615;-80
2022/10/14 05:26:03;;;;;;;6.47;2.65;;;;;;;13.41;61.07;95430.88;5049997;28;20040;-79
2022/10/14 05:28:29;;;;;;;8.35;2.22;;;;;;;13.24;60.92;95399.38;5055521;28;20252;-79
2022/10/14 05:30:55;;;;;;;7.88;3.05;;;;;;;12.94;60.58;95349.91;5049612;28;20040;-79
2022/10/14 05:33:21;;;;;;;7.97;2.65;;;;;;;12.99;60.12;95352.50;5062655;28;20580;-77
2022/10/14 05:35:46;;;;;;;11.77;3.10;;;;;;;13.22;60.49;95374.09;5084454;28;20051;-78
2022/10/14 05:38:12;;;;;;;6.03;2.92;;;;;;;12.93;60.27;95316.38;5054029;28;20037;-79
2022/10/14 05:40:38;;;;;;;10.13;2.97;;;;;;;12.92;59.93;95306.78;5079386;28;21143;-79
2022/10/14 05:43:03;;;;;;;6.82;3.08;;;;;;;13.62;60.06;95426.88;5045757;28;20110;-80
2022/10/14 05:45:29;;;;;;;11.23;2.63;;;;;;;13.65;60.03;95426.31;5063180;28;20044;-79
2022/10/14 05:47:54;;;;;;;14.93;2.70;;;;;;;13.82;60.36;95449.81;5074947;28;20493;-79
2022/10/14 05:50:20;;;;;;;8.25;3.53;;;;;;;13.76;60.31;95422.44;5068182;28;20048;-77
2022/10/14 05:52:46;;;;;;;9.20;3.33;;;;;;;13.48;60.33;95389.50;5039403;28;20039;-78
2022/10/14 05:55:11;;;;;;;9.90;3.80;;;;;;;13.65;60.34;95426.31;5057280;28;20433;-79
2022/10/14 05:57:38;;;;;;;6.15;2.97;;;;;;;13.46;59.84;95382.84;5077916;28;20044;-78
2022/10/14 06:00:05;;;;;;;8.27;2.88;;;;;;;14.05;60.01;95458.81;5050725;28;20051;-78
2022/10/14 06:02:30;;;;;;;7.90;2.60;;;;;;;13.62;59.94;95426.88;5069114;28;20352;-81
2022/10/14 06:04:56;;;;;;;6.35;2.58;;;;;;;13.22;60.65;95369.56;5049671;28;20046;-77
2022/10/14 06:07:21;;;;;;;9.85;3.25;;;;;;;13.48;60.73;95392.16;5067655;28;20874;-76
2022/10/14 06:09:46;;;;;;;10.05;3.28;;;;;;;13.66;60.85;95417.22;5050509;28;20312;-78
2022/10/14 06:12:12;;;;;;;10.05;3.03;;;;;;;13.94;60.64;95449.41;5049021;28;20036;-78
2022/10/14 06:14:37;;;;;;;17.55;7.43;;;;;;;14.14;60.84;95473.09;5069862;28;20032;-75
2022/10/14 06:17:04;;;;;;;16.20;7.25;;;;;;;13.95;60.68;95438.44;5059361;28;20438;-76
2022/10/14 06:19:31;;;;;;;10.70;4.18;;;;;;;14.21;60.33;95474.34;5068129;28;20066;-80
2022/10/14 06:21:56;;;;;;;6.05;3.42;;;;;;;13.81;60.65;95430.34;5060562;28;20052;-77
2022/10/14 06:24:22;;;;;;;7.80;3.25;;;;;;;14.20;60.18;95479.94;5054237;28;20043;-77
2022/10/14 06:26:47;;;;;;;5.93;3.28;;;;;;;13.38;60.31;95356.84;5074446;28;20111;-76
2022/10/14 06:29:13;;;;;;;5.03;3.25;;;;;;;13.88;60.53;95433.44;5067872;28;20139;-76
2022/10/14 06:31:39;;;;;;;8.00;3.42;;;;;;;14.18;60.67;95479.47;5074596;28;20047;-77
2022/10/14 06:34:05;;;;;;;8.95;3.58;;;;;;;14.11;60.07;95461.13;5053304;28;20112;-77
2022/10/14 06:36:31;;;;;;;6.10;3.28;;;;;;;14.38;59.73;95483.72;5055519;28;20045;-77
2022/10/14 06:38:57;;;;;;;8.82;3.40;;;;;;;14.00;60.24;95435.72;5077410;28;20102;-75
2022/10/14 06:41:23;;;;;;;9.88;3.40;;;;;;;14.05;59.69;95432.16;5062586;28;20538;-77
2022/10/14 06:43:48;;;;;;;12.63;3.80;;;;;;;14.17;58.76;95419.19;5072921;28;20043;-77
2022/10/14 06:46:13;;;;;;;7.20;3.92;;;;;;;14.08;59.25;95423.59;5054231;28;20341;-77
2022/10/14 06:48:39;;;;;;;12.10;4.45;;;;;;;14.47;58.38;95461.44;5072915;28;20044;-78
2022/10/14 06:51:04;;;;;;;10.73;4.05;;;;;;;14.25;58.93;95416.66;5045686;28;20036;-80
2022/10/14 06:53:30;;;;;;;27.30;9.30;;;;;;;14.23;59.33;95421.50;5068311;28;20126;-80
2022/10/14 06:56:01;;;;;;;13.88;5.72;;;;;;;14.27;58.10;95416.34;5074102;28;20044;-78
2022/10/14 06:58:27;;;;;;;11.35;4.45;;;;;;;14.81;57.83;95479.84;5052588;28;20105;-80
2022/10/14 07:00:52;;;;;;;11.82;5.57;;;;;;;14.17;57.70;95363.97;5040024;28;20036;-78
2022/10/14 07:03:18;;;;;;;7.32;4.65;;;;;;;14.32;57.70;95402.97;5075883;28;20105;-80
2022/10/14 07:05:43;;;;;;;12.00;4.20;;;;;;;14.37;57.14;95413.53;5076521;28;20669;-80
2022/10/14 07:08:10;;;;;;;8.85;4.45;;;;;;;14.88;57.33;95469.56;5044263;28;20132;-80
2022/10/14 07:10:36;;;;;;;10.77;4.55;;;;;;;14.44;57.34;95407.84;5046234;28;20130;-78
2022/10/14 07:13:01;;;;;;;13.52;4.88;;;;;;;14.40;57.09;95380.97;5041120;28;20044;-79
2022/10/14 07:15:26;;;;;;;10.30;5.28;;;;;;;14.55;57.35;95393.28;5062709;28;20048;-77
2022/10/14 07:17:52;;;;;;;7.15;5.18;;;;;;;14.68;57.28;95417.34;5055422;28;20040;-80
2022/10/14 07:20:17;;;;;;;12.23;4.50;;;;;;;14.73;57.31;95432.47;5081107;28;20048;-78
2022/10/14 07:22:43;;;;;;;8.57;5.00;;;;;;;15.04;56.67;95481.59;5050253;28;20053;-77
2022/10/14 07:25:09;;;;;;;9.82;4.95;;;;;;;14.54;56.71;95397.81;5081081;28;20043;-79
2022/10/14 07:27:34;;;;;;;6.88;4.28;;;;;;;15.14;55.94;95466.47;5060584;28;20065;-79
2022/10/14 07:30:00;;;;;;;10.07;5.00;;;;;;;15.07;55.52;95456.97;5075223;28;20120;-79
2022/10/14 07:32:26;;;;;;;7.13;4.90;;;;;;;15.21;55.66;95478.34;5062126;28;20044;-78
2022/10/14 07:34:51;;;;;;;7.80;5.07;;;;;;;14.93;55.14;95421.44;5054577;28;20072;-79
2022/10/14 07:37:17;;;;;;;8.27;5.30;;;;;;;15.29;55.80;95469.66;5073830;28;20809;-80
2022/10/14 07:39:42;;;;;;;7.85;4.90;;;;;;;15.03;55.81;95429.25;5081471;28;20619;-79
2022/10/14 07:42:07;;;;;;;15.20;4.72;;;;;;;14.69;56.07;95396.78;5080087;28;20103;-80
2022/10/14 07:44:33;;;;;;;9.98;5.57;;;;;;;15.25;55.94;95471.34;5045832;28;20036;-80
2022/10/14 07:47:00;;;;;;;9.35;4.75;;;;;;;15.06;55.26;95420.66;5055369;28;20127;-80
2022/10/14 07:49:26;;;;;;;9.63;5.18;;;;;;;14.82;54.95;95381.84;5040179;28;20546;-79
2022/10/14 07:51:51;;;;;;;8.43;4.65;;;;;;;14.96;55.60;95390.66;5057331;28;20048;-77
2022/10/14 07:54:20;;;;;;;11.10;5.22;;;;;;;15.06;55.16;95430.56;5053688;28;20028;-79
2022/10/14 07:56:49;;;;;;;9.70;5.45;;;;;;;14.87;54.68;95379.09;5071493;28;21719;-77
2022/10/14 07:59:17;;;;;;;11.50;5.70;;;;;;;15.43;54.90;95469.66;5052182;28;20116;-78
2022/10/14 08:01:45;;;;;;;8.90;5.05;;;;;;;15.03;54.68;95391.84;5042274;28;20954;-80
2022/10/14 08:04:10;;;;;;;16.05;5.20;;;;;;;15.31;53.90;95450.66;5041490;28;20126;-81
2022/10/14 08:06:36;;;;;;;6.05;4.65;;;;;;;15.39;53.34;95448.09;5080384;28;20048;-80
2022/10/14 08:09:07;;;;;;;13.48;4.35;;;;;;;15.70;52.92;95464.34;5057301;28;20577;-79
2022/10/14 08:11:32;;;;;;;9.75;4.65;;;;;;;15.39;52.90;95453.44;5070556;28;20040;-79
2022/10/14 08:13:58;;;;;;;7.63;3.80;;;;;;;15.18;52.10;95374.75;5050585;28;20508;-78
2022/10/14 08:16:30;;;;;;;8.52;4.20;;;;;;;15.63;52.28;95461.28;5076913;28;20044;-80
2022/10/14 08:18:57;;;;;;;6.47;3.65;;;;;;;15.16;52.37;95384.97;5055449;28;20036;-80
2022/10/14 08:21:23;;;;;;;9.27;3.67;;;;;;;15.73;52.71;95466.41;5076585;28;20114;-79
2022/10/14 08:23:49;;;;;;;18.45;3.92;;;;;;;15.64;52.04;95432.69;5078612;28;20044;-80
2022/10/14 08:26:35;;;;;;;8.73;3.85;;;;;;;15.57;52.42;95438.41;5070605;28;20033;-80
2022/10/14 08:29:05;;;;;;;9.10;4.10;;;;;;;15.78;52.26;95438.81;5077120;28;20047;-79
2022/10/14 08:31:31;;;;;;;16.50;4.90;;;;;;;16.08;52.01;95466.78;5067239;28;20116;-79
2022/10/14 08:33:57;;;;;;;12.57;3.53;;;;;;;15.97;50.98;95446.69;5058506;28;20037;-78
2022/10/14 08:36:23;;;;;;;9.57;3.85;;;;;;;15.85;51.04;95451.75;5079789;28;20047;-78
2022/10/14 08:38:51;;;;;;;8.77;3.95;;;;;;;15.35;50.42;95371.47;5057230;28;20821;-78
2022/10/14 08:41:42;;;;;;;6.13;3.60;;;;;;;16.00;50.48;95470.97;5075858;28;20926;-79
2022/10/14 08:44:31;;;;;;;5.93;3.53;;;;;;;16.01;49.95;95469.88;5052664;28;20131;-84
2022/10/14 08:47:00;;;;;;;7.47;3.08;;;;;;;15.50;49.91;95389.09;5054858;28;20789;-77
2022/10/14 08:49:45;;;;;;;10.00;3.83;;;;;;;16.06;50.42;95475.09;5076332;28;20035;-79
2022/10/14 08:52:45;;;;;;;7.68;3.33;;;;;;;15.82;49.58;95416.50;5078448;28;20047;-78
2022/10/14 08:55:31;;;;;;;7.97;2.92;;;;;;;15.74;50.51;95401.16;5051135;28;20117;-79
2022/10/14 08:58:03;;;;;;;9.02;3.08;;;;;;;16.36;50.89;95473.63;5077875;28;20133;-79
2022/10/14 09:00:31;;;;;;;12.65;3.72;;;;;;;16.13;51.32;95434.56;5068694;28;20108;-79
2022/10/14 09:02:58;;;;;;;44.60;5.30;;;;;;;16.06;51.72;95439.53;5078128;28;20591;-77
2022/10/14 09:05:25;;;;;;;13.20;3.60;;;;;;;15.97;51.22;95426.06;5056526;28;20043;-79
2022/10/14 09:07:54;;;;;;;11.45;3.38;;;;;;;16.24;49.04;95440.47;5054638;28;20326;-82
2022/10/14 09:10:40;;;;;;;9.45;2.83;;;;;;;16.27;48.73;95432.63;5059247;28;20035;-79
2022/10/14 09:13:21;;;;;;;7.60;3.70;;;;;;;16.44;49.05;95466.78;5076182;28;20070;-79
2022/10/14 09:15:53;;;;;;;7.22;3.72;;;;;;;16.43;48.58;95419.69;5054137;28;20047;-80
2022/10/14 09:18:18;;;;;;;;;;;;;;;16.69;48.59;95465.41;5043369;28;20135;-79
2022/10/14 09:20:45;;;;;;;8.40;3.15;;;;;;;16.30;49.10;95402.59;5078715;28;20011;-80
2022/10/14 09:23:18;;;;;;;5.80;3.85;;;;;;;16.70;49.31;95467.81;5062192;28;20051;-79
2022/10/14 09:26:10;;;;;;;5.20;3.45;;;;;;;16.42;49.61;95424.25;5077200;28;20086;-79
2022/10/14 09:28:39;;;;;;;11.50;4.28;;;;;;;16.93;48.56;95457.84;5057894;28;20071;-80
2022/10/14 09:31:06;;;;;;;12.25;4.45;;;;;;;16.71;48.49;95409.66;5079524;28;20038;-81
2022/10/14 09:33:42;;;;;;;7.93;4.25;;;;;;;16.88;48.51;95436.53;5056465;28;20497;-79
2022/10/14 09:36:16;;;;;;;5.32;4.20;;;;;;;16.84;48.15;95403.44;5072712;28;20047;-81
2022/10/14 09:38:42;;;;;;;9.85;4.45;;;;;;;16.47;48.53;95335.00;5077264;28;20105;-81
2022/10/14 09:41:11;;;;;;;12.68;5.00;;;;;;;16.66;48.19;95394.50;5073183;28;20047;-79
2022/10/14 09:43:36;;;;;;;8.10;4.28;;;;;;;17.12;48.23;95457.63;5066884;28;20094;-79
2022/10/14 09:46:09;;;;;;;13.20;4.70;;;;;;;16.68;49.01;95404.91;5062947;28;20470;-79
2022/10/14 09:48:45;;;;;;;14.52;5.25;;;;;;;17.03;49.30;95392.50;5062672;28;20071;-79
2022/10/14 09:51:28;;;;;;;8.82;4.40;;;;;;;17.65;48.83;95441.47;5077833;28;20489;-80
2022/10/14 09:53:55;;;;;;;9.00;5.03;;;;;;;17.84;48.33;95447.38;5065435;28;20568;-78
2022/10/14 09:56:33;;;;;;;9.20;5.28;;;;;;;18.09;47.36;95448.50;5080446;28;20716;-80
2022/10/14 09:59:01;;;;;;;9.75;4.97;;;;;;;18.22;46.38;95441.44;5080083;28;20044;-84
2022/10/14 10:01:30;;;;;;;16.70;4.47;;;;;;;18.19;46.53;95404.47;5046036;28;20068;-79
2022/10/14 10:03:56;;;;;;;10.02;5.35;;;;;;;18.62;45.81;95399.09;5057102;28;20514;-79
2022/10/14 10:06:26;;;;;;;12.60;4.50;;;;;;;19.07;44.80;95419.06;5051055;28;20040;-78
2022/10/14 10:08:52;;;;;;;7.40;4.45;;;;;;;19.53;43.62;95445.19;5055478;28;20032;-80
2022/10/14 10:11:27;;;;;;;7.55;4.63;;;;;;;19.49;42.95;95387.00;5072052;28;20292;-82
2022/10/14 10:13:53;;;;;;;8.45;4.32;;;;;;;19.97;41.58;95443.88;5073959;28;20094;-81
2022/10/14 10:16:33;;;;;;;8.38;4.68;;;;;;;20.25;42.01;95446.84;5071518;28;20156;-85
2022/10/14 10:19:26;;;;;;;11.40;4.47;;;;;;;20.48;41.64;95423.06;5052528;28;20048;-84
2022/10/14 10:21:52;;;;;;;11.18;4.95;;;;;;;19.80;41.80;95311.31;5068010;28;20056;-84
2022/10/14 10:24:21;;;;;;;13.95;5.40;;;;;;;20.65;41.71;95439.09;5052168;28;20052;-81
2022/10/14 10:26:47;;;;;;;11.10;4.03;;;;;;;20.44;41.57;95410.63;5064780;28;20150;-79
2022/10/14 10:29:36;;;;;;;8.35;4.10;;;;;;;20.39;41.02;95430.44;5050539;28;20173;-80
2022/10/14 10:32:20;;;;;;;17.13;4.20;;;;;;;20.35;40.81;95432.22;5035015;28;20063;-78
2022/10/14 10:35:17;;;;;;;8.88;3.85;;;;;;;19.90;40.43;95364.75;5046089;28;20055;-76
2022/10/14 10:37:57;;;;;;;7.32;3.50;;;;;;;19.84;39.42;95422.53;5075526;28;20502;-77
2022/10/14 10:40:46;;;;;;;9.52;3.85;;;;;;;19.86;40.63;95423.03;5072226;28;20649;-76
2022/10/14 10:43:32;;;;;;;4.88;3.03;;;;;;;20.09;39.25;95416.22;5062600;28;20088;-77
2022/10/14 10:46:22;;;;;;;5.25;3.63;;;;;;;20.30;38.78;95410.81;5052231;28;20475;-78
2022/10/14 10:49:00;;;;;;;14.43;4.82;;;;;;;20.44;38.83;95381.78;5047857;28;20044;-77
2022/10/14 10:51:37;;;;;;;24.90;4.97;;;;;;;20.58;38.98;95349.16;5048539;28;20048;-76
2022/10/14 10:54:33;;;;;;;6.13;3.70;;;;;;;21.13;36.63;95405.34;5050831;28;20648;-77
2022/10/14 10:57:24;;;;;;;5.38;2.60;;;;;;;21.52;35.46;95399.31;5078188;28;20040;-76
2022/10/14 10:59:59;;;;;;;4.43;2.85;;;;;;;21.87;34.68;95406.94;5069009;28;20113;-78
2022/10/14 11:02:53;;;;;;;3.63;2.25;;;;;;;21.82;34.08;95402.56;5067062;28;20063;-77
2022/10/14 11:05:35;;;;;;;3.20;2.40;;;;;;;21.72;32.71;95408.44;5071432;28;20470;-77
2022/10/14 11:14:45;;;;;;;4.10;2.03;;;;;;;21.99;30.85;95384.56;5062278;28;20171;-77
2022/10/14 11:17:48;;;;;;;7.35;2.28;;;;;;;22.17;31.12;95383.19;5061148;28;20551;-76
2022/10/14 11:20:52;;;;;;;8.07;2.60;;;;;;;21.83;32.38;95371.72;5025378;28;20408;-77
2022/10/14 11:23:41;;;;;;;2.45;1.50;;;;;;;21.68;31.62;95336.56;5031459;28;20049;-77
2022/10/14 11:26:41;;;;;;;6.65;1.67;;;;;;;21.72;31.83;95377.94;5018375;28;20045;-76
2022/10/14 11:29:22;;;;;;;5.88;2.10;;;;;;;21.72;31.00;95364.44;5064717;28;20041;-76
2022/10/14 11:32:20;;;;;;;3.08;1.48;;;;;;;21.43;31.19;95312.31;5060353;28;20399;-76
2022/10/14 11:35:06;;;;;;;4.30;1.85;;;;;;;21.37;32.33;95361.41;5074980;28;20390;-76
2022/10/14 11:38:00;;;;;;;8.82;2.67;;;;;;;20.67;31.73;95301.34;5059476;28;20051;-76
2022/10/14 11:40:31;;;;;;;5.15;2.53;;;;;;;21.24;32.31;95354.44;5062360;28;20514;-76
2022/10/14 11:43:24;;;;;;;3.28;1.90;;;;;;;21.56;31.73;95315.78;5075472;28;20072;-76
2022/10/14 11:46:04;;;;;;;4.15;1.70;;;;;;;21.49;31.54;95347.94;5043806;28;20126;-77
2022/10/14 11:48:57;;;;;;;3.40;1.80;;;;;;;21.66;32.07;95336.13;5073790;28;20518;-77
2022/10/14 11:51:31;;;;;;;3.95;1.48;;;;;;;21.77;32.21;95334.50;5062755;28;20036;-76
2022/10/14 11:54:28;;;;;;;8.13;3.33;;;;;;;21.60;31.16;95265.38;5054231;28;20485;-77